createdAt,value
2018-12-04T00:00:53.301Z,1.50
2018-12-04T00:01:53.181Z,1.40
2018-12-04T00:02:53.302Z,1.60
2018-12-04T00:03:53.180Z,1.70
2018-12-04T00:04:53.060Z,2.20
2018-12-04T00:05:53.060Z,1.70
2018-12-04T00:06:52.937Z,1.60
2018-12-04T00:07:52.937Z,1.90
2018-12-04T00:08:52.943Z,1.40
2018-12-04T00:09:52.821Z,1.80
2018-12-04T00:10:52.824Z,1.80
2018-12-04T00:11:52.817Z,1.70
2018-12-04T00:12:52.701Z,1.70
2018-12-04T00:13:52.698Z,1.50
2018-12-04T00:14:52.577Z,1.80
2018-12-04T00:15:52.583Z,1.50
2018-12-04T00:16:52.578Z,1.60
2018-12-04T00:17:52.457Z,1.80
2018-12-04T00:18:52.455Z,1.80
2018-12-04T00:19:52.345Z,2.00
2018-12-04T00:20:52.334Z,1.80
2018-12-04T00:21:52.335Z,1.80
2018-12-04T00:22:52.216Z,1.80
2018-12-04T00:23:52.224Z,1.70
2018-12-04T00:24:52.094Z,1.70
2018-12-04T00:25:52.095Z,2.30
2018-12-04T00:26:52.100Z,1.60
2018-12-04T00:27:51.974Z,1.90
2018-12-04T00:28:51.980Z,1.60
2018-12-04T00:29:51.936Z,1.60
2018-12-04T00:30:51.852Z,1.60
2018-12-04T00:31:51.852Z,1.70
2018-12-04T00:32:51.734Z,1.60
2018-12-04T00:33:51.742Z,1.70
2018-12-04T00:34:51.736Z,1.50
2018-12-04T00:35:51.616Z,1.70
2018-12-04T00:36:51.612Z,1.70
2018-12-04T00:37:51.493Z,1.80
2018-12-04T00:38:51.499Z,1.80
2018-12-04T00:39:51.494Z,2.00
2018-12-04T00:40:51.371Z,2.10
2018-12-04T00:41:51.370Z,1.80
2018-12-04T00:42:51.249Z,2.00
2018-12-04T00:43:51.251Z,2.20
2018-12-04T00:44:51.252Z,1.80
2018-12-04T00:45:51.129Z,1.80
2018-12-04T00:46:51.129Z,1.70
2018-12-04T00:47:51.092Z,1.90
2018-12-04T00:48:51.011Z,1.70
2018-12-04T00:49:51.011Z,2.10
2018-12-04T00:50:50.888Z,2.00
2018-12-04T00:51:50.887Z,1.80
2018-12-04T00:52:50.886Z,1.80
2018-12-04T00:53:50.771Z,1.60
2018-12-04T00:54:50.769Z,2.20
2018-12-04T00:55:50.646Z,1.80
2018-12-04T00:56:50.644Z,2.00
2018-12-04T00:57:50.646Z,1.90
2018-12-04T00:58:50.528Z,1.80
2018-12-04T00:59:50.531Z,1.60
2018-12-04T01:00:50.407Z,2.40
2018-12-04T01:01:50.408Z,2.00
2018-12-04T01:02:50.406Z,1.90
2018-12-04T01:03:50.293Z,1.80
2018-12-04T01:04:50.288Z,2.10
2018-12-04T01:05:50.166Z,2.00
2018-12-04T01:06:50.172Z,2.10
2018-12-04T01:07:50.168Z,1.80
2018-12-04T01:08:50.045Z,2.20
2018-12-04T01:09:50.051Z,2.30
2018-12-04T01:10:49.925Z,1.70
2018-12-04T01:11:49.930Z,1.90
2018-12-04T01:12:49.925Z,1.50
2018-12-04T01:13:49.806Z,2.20
2018-12-04T01:14:49.805Z,2.30
2018-12-04T01:15:49.803Z,2.20
2018-12-04T01:16:49.683Z,1.70
2018-12-04T01:17:49.682Z,1.90
2018-12-04T01:18:49.561Z,2.10
2018-12-04T01:19:49.569Z,2.20
2018-12-04T01:20:49.568Z,2.60
2018-12-04T01:21:49.444Z,2.40
2018-12-04T01:22:49.444Z,2.30
2018-12-04T01:23:49.328Z,2.20
2018-12-04T01:24:49.331Z,2.30
2018-12-04T01:25:49.323Z,2.70
2018-12-04T01:26:49.207Z,2.60
2018-12-04T01:27:49.206Z,2.60
2018-12-04T01:28:49.085Z,2.50
2018-12-04T01:29:49.080Z,2.60
2018-12-04T01:30:49.084Z,2.40
2018-12-04T01:31:48.960Z,2.60
2018-12-04T01:32:48.965Z,2.80
2018-12-04T01:33:48.840Z,2.80
2018-12-04T01:34:48.839Z,2.90
2018-12-04T01:35:48.845Z,2.50
2018-12-04T01:36:49.950Z,2.30
2018-12-04T01:37:48.722Z,2.80
2018-12-04T01:38:48.683Z,2.40
2018-12-04T01:39:48.599Z,2.70
2018-12-04T01:40:48.603Z,2.90
2018-12-04T01:41:48.480Z,2.30
2018-12-04T01:42:48.484Z,2.70
2018-12-04T01:43:48.480Z,2.40
2018-12-04T01:44:48.360Z,2.80
2018-12-04T01:45:48.355Z,2.20
2018-12-04T01:46:51.377Z,2.50
2018-12-04T01:47:48.239Z,2.30
2018-12-04T01:48:48.237Z,2.40
2018-12-04T01:49:48.120Z,2.10
2018-12-04T01:50:48.115Z,2.10
2018-12-04T01:51:47.999Z,2.60
2018-12-04T01:52:48.001Z,2.20
2018-12-04T01:53:47.997Z,2.40
2018-12-04T01:54:47.877Z,2.20
2018-12-04T01:55:47.872Z,2.20
2018-12-04T01:56:47.758Z,2.20
2018-12-04T01:57:47.752Z,2.30
2018-12-04T01:58:47.752Z,2.50
2018-12-04T01:59:47.633Z,2.20
2018-12-04T02:00:47.635Z,2.20
2018-12-04T02:01:47.597Z,2.20
2018-12-04T02:02:47.512Z,2.20
2018-12-04T02:03:47.513Z,2.60
2018-12-04T02:04:47.406Z,2.50
2018-12-04T02:05:47.399Z,2.10
2018-12-04T02:06:47.391Z,2.40
2018-12-04T02:07:47.275Z,2.20
2018-12-04T02:08:47.271Z,1.90
2018-12-04T02:09:47.154Z,2.40
2018-12-04T02:10:47.157Z,2.20
2018-12-04T02:11:47.150Z,2.20
2018-12-04T02:12:47.030Z,2.10
2018-12-04T02:13:47.034Z,1.80
2018-12-04T02:14:46.910Z,2.30
2018-12-04T02:15:46.912Z,2.00
2018-12-04T02:16:46.911Z,2.50
2018-12-04T02:17:46.907Z,1.80
2018-12-04T02:18:46.789Z,2.10
2018-12-04T02:19:46.675Z,2.00
2018-12-04T02:20:46.669Z,1.90
2018-12-04T02:21:46.670Z,2.10
2018-12-04T02:22:46.548Z,2.60
2018-12-04T02:23:46.555Z,2.10
2018-12-04T02:24:46.511Z,2.20
2018-12-04T02:25:46.433Z,2.50
2018-12-04T02:26:46.427Z,2.10
2018-12-04T02:27:46.307Z,1.90
2018-12-04T02:28:46.307Z,2.50
2018-12-04T02:29:46.308Z,2.50
2018-12-04T02:30:46.192Z,2.50
2018-12-04T02:31:46.188Z,2.50
2018-12-04T02:32:46.069Z,2.20
2018-12-04T02:33:46.068Z,2.90
2018-12-04T02:34:46.078Z,2.30
2018-12-04T02:35:45.946Z,2.50
2018-12-04T02:36:45.944Z,2.30
2018-12-04T02:37:45.827Z,2.40
2018-12-04T02:38:45.825Z,2.20
2018-12-04T02:39:45.824Z,2.60
2018-12-04T02:40:45.707Z,2.50
2018-12-04T02:41:45.703Z,3.00
2018-12-04T02:42:45.586Z,2.40
2018-12-04T02:43:45.587Z,2.60
2018-12-04T02:44:45.583Z,2.30
2018-12-04T02:45:45.464Z,2.60
2018-12-04T02:46:45.467Z,2.40
2018-12-04T02:47:45.426Z,2.30
2018-12-04T02:48:45.342Z,2.40
2018-12-04T02:49:45.343Z,2.20
2018-12-04T02:50:45.228Z,2.30
2018-12-04T02:51:45.222Z,2.30
2018-12-04T02:52:45.224Z,2.90
2018-12-04T02:53:45.116Z,2.10
2018-12-04T02:54:45.100Z,2.60
2018-12-04T02:55:44.989Z,2.10
2018-12-04T02:56:45.036Z,2.10
2018-12-04T02:57:44.981Z,2.40
2018-12-04T02:58:44.860Z,2.20
2018-12-04T02:59:44.869Z,2.70
2018-12-04T03:00:44.739Z,2.10
2018-12-04T03:01:44.741Z,2.10
2018-12-04T03:02:44.739Z,2.10
2018-12-04T03:03:44.621Z,2.30
2018-12-04T03:04:44.622Z,2.40
2018-12-04T03:05:44.501Z,1.90
2018-12-04T03:06:44.499Z,2.60
2018-12-04T03:07:44.498Z,2.20
2018-12-04T03:08:44.378Z,2.30
2018-12-04T03:09:44.379Z,2.20
2018-12-04T03:10:44.348Z,2.00
2018-12-04T03:11:44.262Z,2.50
2018-12-04T03:12:44.258Z,2.50
2018-12-04T03:13:44.142Z,2.50
2018-12-04T03:14:44.138Z,2.40
2018-12-04T03:15:44.137Z,3.10
2018-12-04T03:16:44.017Z,2.80
2018-12-04T03:17:44.069Z,2.70
2018-12-04T03:18:43.898Z,2.60
2018-12-04T03:19:43.899Z,2.30
2018-12-04T03:20:43.900Z,2.90
2018-12-04T03:21:43.777Z,2.40
2018-12-04T03:22:43.776Z,2.70
2018-12-04T03:23:43.658Z,2.90
2018-12-04T03:24:43.658Z,2.50
2018-12-04T03:25:43.655Z,2.80
2018-12-04T03:26:43.538Z,2.70
2018-12-04T03:27:43.534Z,3.00
2018-12-04T03:28:43.417Z,2.90
2018-12-04T03:29:43.416Z,2.90
2018-12-04T03:30:43.426Z,3.00
2018-12-04T03:31:43.296Z,3.10
2018-12-04T03:32:43.297Z,2.80
2018-12-04T03:33:43.174Z,3.10
2018-12-04T03:34:43.178Z,3.20
2018-12-04T03:35:43.198Z,3.60
2018-12-04T03:36:43.058Z,3.70
2018-12-04T03:37:43.053Z,3.80
2018-12-04T03:38:43.018Z,4.00
2018-12-04T03:39:42.933Z,4.20
2018-12-04T03:40:42.933Z,4.20
2018-12-04T03:41:42.821Z,4.30
2018-12-04T03:42:42.813Z,4.40
2018-12-04T03:43:42.824Z,5.10
2018-12-04T03:44:42.777Z,4.70
2018-12-04T03:45:42.774Z,5.00
2018-12-04T03:46:42.691Z,5.30
2018-12-04T03:47:42.657Z,5.60
2018-12-04T03:48:42.578Z,5.40
2018-12-04T03:49:42.451Z,5.70
2018-12-04T03:50:42.455Z,5.30
2018-12-04T03:51:42.332Z,5.60
2018-12-04T03:52:42.338Z,6.20
2018-12-04T03:53:42.329Z,6.20
2018-12-04T03:54:42.211Z,5.80
2018-12-04T03:55:42.214Z,6.10
2018-12-04T03:56:42.090Z,6.80
2018-12-04T03:57:42.089Z,6.20
2018-12-04T03:58:42.089Z,6.00
2018-12-04T03:59:41.971Z,6.30
2018-12-04T04:00:41.969Z,5.30
2018-12-04T04:01:41.849Z,5.80
2018-12-04T04:02:41.848Z,6.20
2018-12-04T04:03:41.848Z,5.70
2018-12-04T04:04:41.728Z,5.40
2018-12-04T04:05:41.737Z,5.60
2018-12-04T04:06:41.608Z,5.50
2018-12-04T04:07:41.616Z,5.40
2018-12-04T04:08:41.608Z,5.40
2018-12-04T04:09:41.487Z,5.90
2018-12-04T04:10:41.487Z,5.70
2018-12-04T04:11:41.483Z,5.80
2018-12-04T04:12:41.366Z,5.50
2018-12-04T04:13:41.369Z,5.40
2018-12-04T04:14:41.253Z,5.60
2018-12-04T04:15:41.252Z,5.10
2018-12-04T04:16:41.249Z,5.90
2018-12-04T04:17:41.125Z,5.50
2018-12-04T04:18:41.126Z,5.60
2018-12-04T04:19:41.008Z,5.40
2018-12-04T04:20:41.012Z,4.80
2018-12-04T04:21:41.009Z,5.70
2018-12-04T04:22:40.888Z,5.40
2018-12-04T04:23:40.896Z,5.30
2018-12-04T04:24:40.772Z,5.50
2018-12-04T04:25:40.766Z,5.20
2018-12-04T04:26:40.768Z,5.70
2018-12-04T04:27:40.643Z,4.80
2018-12-04T04:28:40.649Z,4.50
2018-12-04T04:29:40.530Z,5.10
2018-12-04T04:30:40.523Z,4.90
2018-12-04T04:31:40.526Z,5.10
2018-12-04T04:32:40.405Z,4.30
2018-12-04T04:33:40.402Z,4.60
2018-12-04T04:34:40.283Z,4.00
2018-12-04T04:35:40.283Z,4.50
2018-12-04T04:36:40.283Z,4.70
2018-12-04T04:37:40.168Z,4.50
2018-12-04T04:38:40.164Z,4.20
2018-12-04T04:39:40.039Z,4.50
2018-12-04T04:40:40.042Z,4.00
2018-12-04T04:41:40.046Z,4.80
2018-12-04T04:42:39.922Z,4.30
2018-12-04T04:43:39.922Z,4.40
2018-12-04T04:44:39.805Z,4.50
2018-12-04T04:45:39.801Z,4.20
2018-12-04T04:46:39.802Z,4.60
2018-12-04T04:47:39.680Z,4.30
2018-12-04T04:48:39.679Z,5.30
2018-12-04T04:49:39.557Z,4.80
2018-12-04T04:50:39.558Z,5.10
2018-12-04T04:51:39.559Z,4.50
2018-12-04T04:52:39.439Z,4.40
2018-12-04T04:53:39.439Z,4.50
2018-12-04T04:54:39.318Z,4.50
2018-12-04T04:55:39.324Z,4.70
2018-12-04T04:56:39.317Z,4.80
2018-12-04T04:57:39.198Z,4.80
2018-12-04T04:58:39.209Z,4.40
2018-12-04T04:59:39.167Z,4.60
2018-12-04T05:00:39.075Z,4.70
2018-12-04T05:01:39.078Z,4.50
2018-12-04T05:02:38.954Z,4.50
2018-12-04T05:03:38.963Z,5.40
2018-12-04T05:04:38.924Z,5.20
2018-12-04T05:05:38.836Z,5.30
2018-12-04T05:06:38.837Z,5.00
2018-12-04T05:07:38.722Z,5.80
2018-12-04T05:08:38.719Z,6.00
2018-12-04T05:09:38.715Z,5.80
2018-12-04T05:10:38.617Z,5.00
2018-12-04T05:11:38.603Z,5.70
2018-12-04T05:12:38.474Z,5.70
2018-12-04T05:13:38.490Z,5.70
2018-12-04T05:14:38.476Z,5.60
2018-12-04T05:15:38.353Z,6.20
2018-12-04T05:16:38.352Z,5.90
2018-12-04T05:17:38.237Z,6.40
2018-12-04T05:18:38.236Z,6.60
2018-12-04T05:19:38.234Z,6.60
2018-12-04T05:20:38.112Z,6.00
2018-12-04T05:21:38.111Z,6.30
2018-12-04T05:22:37.990Z,6.00
2018-12-04T05:23:37.991Z,6.20
2018-12-04T05:24:37.995Z,5.70
2018-12-04T05:25:37.871Z,5.30
2018-12-04T05:26:37.870Z,5.80
2018-12-04T05:27:37.758Z,5.50
2018-12-04T05:28:37.750Z,5.70
2018-12-04T05:29:37.749Z,5.30
2018-12-04T05:30:37.629Z,5.10
2018-12-04T05:31:37.628Z,5.50
2018-12-04T05:32:37.509Z,5.60
2018-12-04T05:33:37.509Z,5.40
2018-12-04T05:34:37.511Z,4.70
2018-12-04T05:35:37.392Z,5.00
2018-12-04T05:36:37.389Z,5.20
2018-12-04T05:37:37.267Z,5.10
2018-12-04T05:38:37.275Z,5.00
2018-12-04T05:39:37.268Z,5.00
2018-12-04T05:40:37.147Z,5.10
2018-12-04T05:41:37.146Z,4.50
2018-12-04T05:42:37.073Z,4.60
2018-12-04T05:43:37.028Z,4.60
2018-12-04T05:44:37.026Z,5.00
2018-12-04T05:45:36.905Z,5.70
2018-12-04T05:46:36.908Z,4.50
2018-12-04T05:47:36.787Z,4.10
2018-12-04T05:48:36.784Z,5.10
2018-12-04T05:49:36.808Z,5.00
2018-12-04T05:50:36.666Z,5.10
2018-12-04T05:51:36.665Z,5.10
2018-12-04T05:52:36.544Z,5.20
2018-12-04T05:53:36.543Z,5.30
2018-12-04T05:54:36.548Z,4.80
2018-12-04T05:55:36.425Z,6.20
2018-12-04T05:56:36.424Z,5.80
2018-12-04T05:57:36.304Z,5.20
2018-12-04T05:58:36.304Z,5.30
2018-12-04T05:59:36.302Z,4.90
2018-12-04T06:00:36.182Z,5.60
2018-12-04T06:01:36.182Z,5.30
2018-12-04T06:02:36.064Z,5.30
2018-12-04T06:03:36.062Z,5.20
2018-12-04T06:04:36.069Z,5.00
2018-12-04T06:05:35.942Z,5.20
2018-12-04T06:06:35.941Z,5.00
2018-12-04T06:07:35.820Z,5.40
2018-12-04T06:08:35.826Z,5.30
2018-12-04T06:09:35.823Z,4.90
2018-12-04T06:10:35.701Z,5.20
2018-12-04T06:11:35.698Z,5.40
2018-12-04T06:12:35.580Z,4.90
2018-12-04T06:13:35.577Z,5.00
2018-12-04T06:14:35.579Z,5.50
2018-12-04T06:15:35.457Z,5.00
2018-12-04T06:16:35.462Z,5.60
2018-12-04T06:17:35.344Z,4.80
2018-12-04T06:18:35.341Z,5.00
2018-12-04T06:19:35.336Z,4.80
2018-12-04T06:20:35.218Z,6.00
2018-12-04T06:21:35.216Z,5.80
2018-12-04T06:22:35.181Z,5.40
2018-12-04T06:23:35.098Z,5.60
2018-12-04T06:24:35.096Z,5.70
2018-12-04T06:25:34.984Z,5.70
2018-12-04T06:26:34.979Z,5.40
2018-12-04T06:27:34.857Z,6.00
2018-12-04T06:28:34.858Z,6.00
2018-12-04T06:29:34.859Z,6.10
2018-12-04T06:30:34.735Z,5.70
2018-12-04T06:31:34.734Z,6.00
2018-12-04T06:32:34.614Z,5.90
2018-12-04T06:33:34.619Z,6.30
2018-12-04T06:34:34.618Z,6.20
2018-12-04T06:35:34.496Z,6.50
2018-12-04T06:36:34.494Z,6.10
2018-12-04T06:37:34.376Z,6.40
2018-12-04T06:38:34.373Z,6.30
2018-12-04T06:39:34.379Z,6.40
2018-12-04T06:40:34.252Z,6.60
2018-12-04T06:41:34.254Z,6.20
2018-12-04T06:42:34.215Z,5.80
2018-12-04T06:43:34.130Z,5.50
2018-12-04T06:44:35.271Z,5.30
2018-12-04T06:45:34.010Z,5.50
2018-12-04T06:46:34.011Z,5.10
2018-12-04T06:47:33.974Z,4.40
2018-12-04T06:48:33.890Z,4.30
2018-12-04T06:49:33.893Z,5.10
2018-12-04T06:50:33.775Z,5.00
2018-12-04T06:51:33.771Z,4.50
2018-12-04T06:52:33.734Z,4.30
2018-12-04T06:53:33.651Z,4.50
2018-12-04T06:54:33.651Z,4.20
2018-12-04T06:55:33.529Z,3.90
2018-12-04T06:56:33.529Z,4.00
2018-12-04T06:57:33.524Z,4.80
2018-12-04T06:58:33.410Z,4.00
2018-12-04T06:59:33.411Z,4.10
2018-12-04T07:00:33.289Z,4.40
2018-12-04T07:01:33.288Z,4.40
2018-12-04T07:02:33.286Z,6.40
2018-12-04T07:03:33.169Z,6.10
2018-12-04T07:04:33.492Z,6.10
2018-12-04T07:05:33.055Z,6.10
2018-12-04T07:06:33.049Z,5.90
2018-12-04T07:07:33.048Z,5.80
2018-12-04T07:08:32.935Z,6.10
2018-12-04T07:09:32.927Z,5.40
2018-12-04T07:10:32.808Z,5.70
2018-12-04T07:11:32.809Z,5.40
2018-12-04T07:12:32.808Z,5.90
2018-12-04T07:13:32.688Z,5.20
2018-12-04T07:14:32.687Z,5.20
2018-12-04T07:15:32.566Z,5.20
2018-12-04T07:16:32.568Z,5.50
2018-12-04T07:17:32.569Z,5.10
2018-12-04T07:18:32.444Z,5.20
2018-12-04T07:19:32.446Z,5.50
2018-12-04T07:20:32.325Z,6.10
2018-12-04T07:21:32.325Z,5.50
2018-12-04T07:22:32.324Z,5.70
2018-12-04T07:23:32.202Z,9.80
2018-12-04T07:24:32.205Z,9.20
2018-12-04T07:25:32.088Z,8.90
2018-12-04T07:26:32.083Z,7.80
2018-12-04T07:27:32.093Z,5.80
2018-12-04T07:28:31.968Z,6.20
2018-12-04T07:29:31.967Z,5.80
2018-12-04T07:30:31.847Z,5.90
2018-12-04T07:31:31.840Z,5.50
2018-12-04T07:32:31.845Z,6.00
2018-12-04T07:33:31.722Z,5.70
2018-12-04T07:34:31.841Z,5.70
2018-12-04T07:35:31.718Z,6.00
2018-12-04T07:36:31.728Z,6.00
2018-12-04T07:37:31.695Z,5.70
2018-12-04T07:38:31.482Z,6.30
2018-12-04T07:39:31.478Z,6.20
2018-12-04T07:40:31.360Z,5.90
2018-12-04T07:41:31.364Z,5.70
2018-12-04T07:42:31.361Z,6.20
2018-12-04T07:43:31.238Z,6.10
2018-12-04T07:44:31.248Z,6.10
2018-12-04T07:45:31.119Z,6.30
2018-12-04T07:46:31.121Z,6.20
2018-12-04T07:47:31.118Z,5.90
2018-12-04T07:48:30.999Z,5.80
2018-12-04T07:49:30.997Z,6.60
2018-12-04T07:50:30.886Z,7.00
2018-12-04T07:51:30.882Z,6.20
2018-12-04T07:52:30.890Z,6.30
2018-12-04T07:53:30.759Z,6.70
2018-12-04T07:54:30.757Z,6.30
2018-12-04T07:55:30.635Z,6.00
2018-12-04T07:56:30.643Z,5.90
2018-12-04T07:57:30.646Z,5.20
2018-12-04T07:58:30.523Z,5.10
2018-12-04T07:59:30.524Z,4.00
2018-12-04T08:00:30.398Z,4.40
2018-12-04T08:01:30.396Z,4.20
2018-12-04T08:02:30.401Z,4.10
2018-12-04T08:03:30.278Z,4.10
2018-12-04T08:04:30.286Z,4.30
2018-12-04T08:05:30.152Z,3.50
2018-12-04T08:06:30.157Z,4.10
2018-12-04T08:07:30.158Z,5.00
2018-12-04T08:08:30.035Z,3.40
2018-12-04T08:09:30.033Z,4.30
2018-12-04T08:10:29.913Z,3.70
2018-12-04T08:11:29.913Z,3.80
2018-12-04T08:12:29.911Z,3.20
2018-12-04T08:13:29.791Z,3.90
2018-12-04T08:14:29.793Z,3.90
2018-12-04T08:15:29.671Z,3.80
2018-12-04T08:16:29.683Z,4.50
2018-12-04T08:17:29.672Z,3.90
2018-12-04T08:18:29.550Z,3.50
2018-12-04T08:19:29.550Z,4.00
2018-12-04T08:20:29.432Z,3.90
2018-12-04T08:21:29.438Z,3.80
2018-12-04T08:22:29.444Z,4.00
2018-12-04T08:23:29.317Z,4.50
2018-12-04T08:24:29.313Z,4.30
2018-12-04T08:25:29.212Z,3.90
2018-12-04T08:26:29.188Z,3.70
2018-12-04T08:27:29.192Z,4.30
2018-12-04T08:28:29.067Z,3.60
2018-12-04T08:29:29.071Z,3.60
2018-12-04T08:30:28.947Z,3.80
2018-12-04T08:31:28.959Z,4.00
2018-12-04T08:32:28.952Z,3.50
2018-12-04T08:33:28.829Z,3.60
2018-12-04T08:34:28.826Z,3.80
2018-12-04T08:35:28.710Z,3.20
2018-12-04T08:36:28.707Z,3.90
2018-12-04T08:37:28.706Z,3.20
2018-12-04T08:38:28.586Z,3.50
2018-12-04T08:39:28.588Z,3.20
2018-12-04T08:40:28.465Z,3.90
2018-12-04T08:41:28.465Z,3.40
2018-12-04T08:42:28.470Z,3.90
2018-12-04T08:43:28.345Z,3.30
2018-12-04T08:44:28.345Z,3.50
2018-12-04T08:45:28.224Z,3.60
2018-12-04T08:46:28.223Z,3.20
2018-12-04T08:47:28.229Z,3.50
2018-12-04T08:48:28.107Z,3.40
2018-12-04T08:49:28.105Z,4.00
2018-12-04T08:50:27.984Z,3.90
2018-12-04T08:51:27.982Z,3.50
2018-12-04T08:52:27.983Z,3.30
2018-12-04T08:53:27.862Z,3.90
2018-12-04T08:54:27.866Z,3.80
2018-12-04T08:55:27.748Z,3.50
2018-12-04T08:56:27.743Z,3.60
2018-12-04T08:57:27.742Z,3.70
2018-12-04T08:58:27.623Z,3.70
2018-12-04T08:59:27.622Z,3.80
2018-12-04T09:00:27.503Z,3.80
2018-12-04T09:01:27.502Z,3.50
2018-12-04T09:02:27.501Z,3.60
2018-12-04T09:03:27.385Z,4.10
2018-12-04T09:04:27.387Z,4.50
2018-12-04T09:05:27.265Z,4.20
2018-12-04T09:06:27.266Z,4.20
2018-12-04T09:07:27.261Z,3.90
2018-12-04T09:08:27.140Z,4.20
2018-12-04T09:09:27.143Z,3.90
2018-12-04T09:10:27.020Z,3.90
2018-12-04T09:11:27.020Z,4.00
2018-12-04T09:12:27.018Z,4.00
2018-12-04T09:13:26.904Z,4.00
2018-12-04T09:14:26.899Z,3.80
2018-12-04T09:15:26.787Z,3.80
2018-12-04T09:16:26.779Z,3.90
2018-12-04T09:17:26.781Z,3.40
2018-12-04T09:18:26.680Z,3.90
2018-12-04T09:19:26.707Z,4.10
2018-12-04T09:20:26.555Z,2.80
2018-12-04T09:21:26.559Z,3.50
2018-12-04T09:22:26.559Z,3.50
2018-12-04T09:23:26.424Z,3.40
2018-12-04T09:24:30.707Z,3.70
2018-12-04T09:25:26.325Z,3.10
2018-12-04T09:26:26.295Z,3.40
2018-12-04T09:27:26.307Z,3.80
2018-12-04T09:28:26.192Z,4.20
2018-12-04T09:29:26.185Z,3.40
2018-12-04T09:30:26.054Z,3.60
2018-12-04T09:31:26.055Z,3.90
2018-12-04T09:32:26.056Z,3.90
2018-12-04T09:33:25.939Z,3.60
2018-12-04T09:34:29.861Z,3.50
2018-12-04T09:35:25.814Z,3.70
2018-12-04T09:36:25.813Z,3.50
2018-12-04T09:37:25.813Z,3.10
2018-12-04T09:38:25.695Z,3.70
2018-12-04T09:39:25.694Z,3.50
2018-12-04T09:40:25.576Z,3.20
2018-12-04T09:41:25.573Z,3.30
2018-12-04T09:42:25.572Z,3.30
2018-12-04T09:43:25.454Z,3.20
2018-12-04T09:44:25.452Z,3.50
2018-12-04T09:45:25.415Z,3.20
2018-12-04T09:46:25.336Z,3.00
2018-12-04T09:47:25.333Z,3.20
2018-12-04T09:48:25.213Z,4.00
2018-12-04T09:49:25.212Z,3.30
2018-12-04T09:50:25.214Z,3.50
2018-12-04T09:51:25.089Z,3.20
2018-12-04T09:52:25.090Z,3.20
2018-12-04T09:53:25.365Z,3.20
2018-12-04T09:54:24.971Z,3.70
2018-12-04T09:55:24.970Z,3.40
2018-12-04T09:56:24.849Z,3.00
2018-12-04T09:57:24.850Z,3.70
2018-12-04T09:58:24.729Z,3.50
2018-12-04T09:59:24.727Z,3.70
2018-12-04T10:00:24.730Z,3.40
2018-12-04T10:01:24.609Z,3.00
2018-12-04T10:02:24.608Z,3.00
2018-12-04T10:03:24.488Z,3.70
2018-12-04T10:04:24.486Z,3.30
2018-12-04T10:05:24.488Z,3.00
2018-12-04T10:06:24.366Z,3.40
2018-12-04T10:07:24.370Z,3.60
2018-12-04T10:08:24.720Z,3.60
2018-12-04T10:09:24.252Z,3.50
2018-12-04T10:10:24.245Z,3.20
2018-12-04T10:11:24.126Z,3.20
2018-12-04T10:12:24.127Z,3.50
2018-12-04T10:13:24.010Z,3.00
2018-12-04T10:14:24.006Z,3.70
2018-12-04T10:15:24.009Z,3.70
2018-12-04T10:16:23.886Z,3.20
2018-12-04T10:17:23.887Z,3.50
2018-12-04T10:18:23.765Z,3.20
2018-12-04T10:19:23.764Z,3.30
2018-12-04T10:20:23.763Z,3.20
2018-12-04T10:21:23.644Z,3.30
2018-12-04T10:22:23.644Z,3.10
2018-12-04T10:23:23.644Z,3.30
2018-12-04T10:24:23.522Z,3.10
2018-12-04T10:25:23.522Z,3.20
2018-12-04T10:26:23.402Z,2.90
2018-12-04T10:27:23.401Z,2.90
2018-12-04T10:28:23.404Z,2.90
2018-12-04T10:29:23.285Z,2.80
2018-12-04T10:30:23.285Z,2.60
2018-12-04T10:31:23.162Z,2.60
2018-12-04T10:32:23.160Z,2.80
2018-12-04T10:33:23.162Z,2.70
2018-12-04T10:34:23.041Z,2.60
2018-12-04T10:35:23.039Z,2.30
2018-12-04T10:36:22.920Z,2.20
2018-12-04T10:37:22.920Z,3.20
2018-12-04T10:38:22.929Z,2.60
2018-12-04T10:39:22.799Z,3.00
2018-12-04T10:40:22.798Z,2.80
2018-12-04T10:41:22.679Z,2.70
2018-12-04T10:42:22.679Z,2.80
2018-12-04T10:43:22.679Z,2.80
2018-12-04T10:44:22.557Z,2.50
2018-12-04T10:45:22.558Z,2.50
2018-12-04T10:46:22.522Z,2.40
2018-12-04T10:47:22.436Z,2.60
2018-12-04T10:48:22.437Z,2.30
2018-12-04T10:49:22.320Z,2.90
2018-12-04T10:50:22.316Z,3.20
2018-12-04T10:51:22.316Z,2.50
2018-12-04T10:52:22.198Z,2.30
2018-12-04T10:53:22.196Z,2.60
2018-12-04T10:54:22.075Z,2.50
2018-12-04T10:55:22.077Z,2.60
2018-12-04T10:56:22.075Z,2.50
2018-12-04T10:57:21.954Z,2.60
2018-12-04T10:58:21.955Z,2.80
2018-12-04T10:59:21.834Z,2.70
2018-12-04T11:00:21.835Z,2.90
2018-12-04T11:01:21.834Z,2.40
2018-12-04T11:02:21.714Z,2.50
2018-12-04T11:03:21.714Z,2.40
2018-12-04T11:04:21.713Z,2.80
2018-12-04T11:05:21.595Z,3.00
2018-12-04T11:06:21.598Z,3.10
2018-12-04T11:07:21.472Z,2.80
2018-12-04T11:08:21.472Z,3.20
2018-12-04T11:09:21.477Z,2.60
2018-12-04T11:10:21.360Z,2.80
2018-12-04T11:11:21.351Z,2.80
2018-12-04T11:12:21.232Z,3.10
2018-12-04T11:13:21.233Z,3.20
2018-12-04T11:14:21.233Z,3.30
2018-12-04T11:15:21.109Z,2.80
2018-12-04T11:16:21.113Z,3.20
2018-12-04T11:17:20.991Z,3.10
2018-12-04T11:18:20.994Z,2.80
2018-12-04T11:19:20.989Z,2.90
2018-12-04T11:20:20.870Z,2.70
2018-12-04T11:21:20.873Z,2.80
2018-12-04T11:22:20.833Z,2.60
2018-12-04T11:23:20.756Z,2.70
2018-12-04T11:24:20.753Z,2.70
2018-12-04T11:25:20.628Z,3.00
2018-12-04T11:26:20.631Z,2.80
2018-12-04T11:27:20.629Z,2.80
2018-12-04T11:28:20.510Z,2.60
2018-12-04T11:29:20.509Z,2.90
2018-12-04T11:30:20.391Z,3.10
2018-12-04T11:31:20.397Z,3.00
2018-12-04T11:32:20.393Z,2.70
2018-12-04T11:33:20.271Z,2.50
2018-12-04T11:34:20.269Z,2.80
2018-12-04T11:35:20.147Z,2.90
2018-12-04T11:36:20.147Z,3.10
2018-12-04T11:37:20.148Z,2.60
2018-12-04T11:38:20.026Z,3.10
2018-12-04T11:39:20.026Z,3.70
2018-12-04T11:40:19.992Z,2.70
2018-12-04T11:41:19.906Z,2.80
2018-12-04T11:42:19.907Z,3.00
2018-12-04T11:43:19.786Z,2.80
2018-12-04T11:44:19.786Z,2.90
2018-12-04T11:45:19.785Z,3.10
2018-12-04T11:46:19.668Z,3.20
2018-12-04T11:47:19.746Z,2.80
2018-12-04T11:48:19.545Z,2.50
2018-12-04T11:49:19.544Z,2.70
2018-12-04T11:50:19.551Z,3.00
2018-12-04T11:51:19.423Z,2.90
2018-12-04T11:52:19.425Z,2.80
2018-12-04T11:53:19.303Z,3.00
2018-12-04T11:54:19.301Z,2.60
2018-12-04T11:55:19.304Z,2.90
2018-12-04T11:56:19.184Z,3.20
2018-12-04T11:57:19.183Z,3.00
2018-12-04T11:58:19.062Z,2.60
2018-12-04T11:59:19.062Z,2.60
2018-12-04T12:00:19.068Z,3.30
2018-12-04T12:01:18.944Z,3.00
2018-12-04T12:02:18.943Z,3.30
2018-12-04T12:03:18.941Z,2.80
2018-12-04T12:04:18.822Z,3.10
2018-12-04T12:05:18.821Z,3.00
2018-12-04T12:06:18.700Z,2.90
2018-12-04T12:07:20.685Z,2.70
2018-12-04T12:08:18.700Z,2.60
2018-12-04T12:09:18.584Z,3.40
2018-12-04T12:10:18.580Z,3.40
2018-12-04T12:11:18.467Z,2.80
2018-12-04T12:12:18.460Z,2.60
2018-12-04T12:13:18.463Z,2.80
2018-12-04T12:14:18.338Z,2.50
2018-12-04T12:15:19.660Z,2.40
2018-12-04T12:16:18.219Z,2.80
2018-12-04T12:17:18.222Z,2.70
2018-12-04T12:18:18.220Z,3.00
2018-12-04T12:19:18.097Z,2.90
2018-12-04T12:20:18.099Z,2.70
2018-12-04T12:21:18.103Z,3.00
2018-12-04T12:22:18.998Z,2.80
2018-12-04T12:23:17.978Z,2.70
2018-12-04T12:24:17.856Z,2.80
2018-12-04T12:25:17.861Z,3.40
2018-12-04T12:26:17.858Z,2.70
2018-12-04T12:27:17.735Z,3.20
2018-12-04T12:28:17.734Z,2.90
2018-12-04T12:29:17.615Z,2.30
2018-12-04T12:30:17.617Z,2.80
2018-12-04T12:31:17.614Z,3.00
2018-12-04T12:32:17.496Z,2.90
2018-12-04T12:33:17.495Z,2.40
2018-12-04T12:34:23.375Z,3.00
2018-12-04T12:35:17.375Z,2.50
2018-12-04T12:36:17.375Z,2.70
2018-12-04T12:37:17.254Z,2.90
2018-12-04T12:38:17.254Z,2.60
2018-12-04T12:39:17.282Z,2.80
2018-12-04T12:40:17.133Z,2.40
2018-12-04T12:41:17.133Z,3.00
2018-12-04T12:42:17.012Z,3.10
2018-12-04T12:43:17.013Z,3.50
2018-12-04T12:44:17.019Z,2.70
2018-12-04T12:45:16.901Z,2.40
2018-12-04T12:46:16.898Z,2.90
2018-12-04T12:47:16.859Z,2.80
2018-12-04T12:48:16.891Z,2.50
2018-12-04T12:49:16.775Z,2.50
2018-12-04T12:50:16.651Z,2.90
2018-12-04T12:51:16.651Z,2.50
2018-12-04T12:52:16.650Z,2.70
2018-12-04T12:53:16.535Z,2.40
2018-12-04T12:54:16.531Z,3.20
2018-12-04T12:55:16.411Z,2.80
2018-12-04T12:56:16.415Z,3.10
2018-12-04T12:57:16.415Z,3.30
2018-12-04T12:58:16.292Z,2.50
2018-12-04T12:59:16.288Z,2.80
2018-12-04T13:00:16.382Z,3.20
2018-12-04T13:01:16.174Z,3.00
2018-12-04T13:02:16.173Z,3.40
2018-12-04T13:03:16.047Z,3.20
2018-12-04T13:04:16.049Z,2.90
2018-12-04T13:05:15.933Z,3.00
2018-12-04T13:06:15.928Z,2.50
2018-12-04T13:07:15.928Z,2.70
2018-12-04T13:08:15.812Z,2.80
2018-12-04T13:09:15.805Z,3.50
2018-12-04T13:10:15.690Z,2.90
2018-12-04T13:11:15.685Z,3.70
2018-12-04T13:12:15.685Z,3.20
2018-12-04T13:13:15.566Z,3.00
2018-12-04T13:14:15.567Z,2.90
2018-12-04T13:15:15.575Z,3.30
2018-12-04T13:16:15.448Z,3.60
2018-12-04T13:17:15.446Z,3.20
2018-12-04T13:18:15.333Z,2.80